sensor_id;sensor_type;location;lat;lon;timestamp;P1;durP1;ratioP1;P2;durP2;ratioP2
37973;SDS011;23796;51.458;7.000;2023-11-21T00:01:01;10.27;;;5.07;;
37973;SDS011;23796;51.458;7.000;2023-11-21T00:03:28;10.45;;;5.47;;
37973;SDS011;23796;51.458;7.000;2023-11-21T00:05:54;10.90;;;6.38;;
37973;SDS011;23796;51.458;7.000;2023-11-21T00:08:20;8.95;;;5.40;;
37973;SDS011;23796;51.458;7.000;2023-11-21T00:10:48;8.35;;;5.07;;
37973;SDS011;23796;51.458;7.000;2023-11-21T00:13:14;7.90;;;5.00;;
37973;SDS011;23796;51.458;7.000;2023-11-21T00:15:39;10.55;;;5.90;;
37973;SDS011;23796;51.458;7.000;2023-11-21T00:18:05;12.52;;;5.70;;
37973;SDS011;23796;51.458;7.000;2023-11-21T00:20:31;9.55;;;5.53;;
37973;SDS011;23796;51.458;7.000;2023-11-21T00:22:57;8.30;;;5.05;;
37973;SDS011;23796;51.458;7.000;2023-11-21T00:25:22;10.52;;;6.05;;
37973;SDS011;23796;51.458;7.000;2023-11-21T00:27:48;11.80;;;6.25;;
37973;SDS011;23796;51.458;7.000;2023-11-21T00:30:14;10.90;;;6.22;;
37973;SDS011;23796;51.458;7.000;2023-11-21T00:32:42;13.10;;;6.38;;
37973;SDS011;23796;51.458;7.000;2023-11-21T00:35:08;10.25;;;5.57;;
37973;SDS011;23796;51.458;7.000;2023-11-21T00:37:36;11.95;;;6.50;;
37973;SDS011;23796;51.458;7.000;2023-11-21T00:40:04;13.68;;;6.50;;
37973;SDS011;23796;51.458;7.000;2023-11-21T00:42:30;11.85;;;6.63;;
37973;SDS011;23796;51.458;7.000;2023-11-21T00:44:58;12.05;;;6.07;;
37973;SDS011;23796;51.458;7.000;2023-11-21T00:47:24;12.52;;;6.60;;
37973;SDS011;23796;51.458;7.000;2023-11-21T00:49:50;11.70;;;6.68;;
37973;SDS011;23796;51.458;7.000;2023-11-21T00:52:16;10.40;;;6.40;;
37973;SDS011;23796;51.458;7.000;2023-11-21T00:54:41;12.23;;;6.63;;
37973;SDS011;23796;51.458;7.000;2023-11-21T00:57:07;15.50;;;6.60;;
37973;SDS011;23796;51.458;7.000;2023-11-21T00:59:33;9.38;;;5.57;;
37973;SDS011;23796;51.458;7.000;2023-11-21T01:01:59;11.75;;;5.22;;
37973;SDS011;23796;51.458;7.000;2023-11-21T01:04:29;10.48;;;5.55;;
37973;SDS011;23796;51.458;7.000;2023-11-21T01:06:57;10.07;;;6.20;;
37973;SDS011;23796;51.458;7.000;2023-11-21T01:09:22;12.25;;;5.57;;
37973;SDS011;23796;51.458;7.000;2023-11-21T01:11:49;9.43;;;5.60;;
37973;SDS011;23796;51.458;7.000;2023-11-21T01:14:14;11.82;;;6.22;;
37973;SDS011;23796;51.458;7.000;2023-11-21T01:16:40;10.60;;;5.68;;
37973;SDS011;23796;51.458;7.000;2023-11-21T01:19:05;12.35;;;6.00;;
37973;SDS011;23796;51.458;7.000;2023-11-21T01:21:31;10.23;;;5.63;;
37973;SDS011;23796;51.458;7.000;2023-11-21T01:23:57;10.40;;;5.78;;
37973;SDS011;23796;51.458;7.000;2023-11-21T01:26:22;10.85;;;5.95;;
37973;SDS011;23796;51.458;7.000;2023-11-21T01:28:48;10.80;;;5.93;;
37973;SDS011;23796;51.458;7.000;2023-11-21T01:31:14;11.57;;;6.10;;
37973;SDS011;23796;51.458;7.000;2023-11-21T01:33:40;12.90;;;6.18;;
37973;SDS011;23796;51.458;7.000;2023-11-21T01:36:06;10.80;;;6.13;;
37973;SDS011;23796;51.458;7.000;2023-11-21T01:38:32;7.95;;;5.13;;
37973;SDS011;23796;51.458;7.000;2023-11-21T01:40:57;8.65;;;5.13;;
37973;SDS011;23796;51.458;7.000;2023-11-21T01:43:25;9.82;;;5.47;;
37973;SDS011;23796;51.458;7.000;2023-11-21T01:45:55;11.88;;;5.43;;
37973;SDS011;23796;51.458;7.000;2023-11-21T01:48:24;9.98;;;5.43;;
37973;SDS011;23796;51.458;7.000;2023-11-21T01:50:51;12.57;;;6.13;;
37973;SDS011;23796;51.458;7.000;2023-11-21T01:53:16;12.82;;;5.70;;
37973;SDS011;23796;51.458;7.000;2023-11-21T01:55:43;12.63;;;5.75;;
37973;SDS011;23796;51.458;7.000;2023-11-21T01:58:10;9.43;;;5.53;;
37973;SDS011;23796;51.458;7.000;2023-11-21T02:00:37;10.27;;;5.55;;
37973;SDS011;23796;51.458;7.000;2023-11-21T02:03:03;11.25;;;5.32;;
37973;SDS011;23796;51.458;7.000;2023-11-21T02:05:29;11.52;;;5.90;;
37973;SDS011;23796;51.458;7.000;2023-11-21T02:07:55;10.07;;;5.43;;
37973;SDS011;23796;51.458;7.000;2023-11-21T02:10:21;8.88;;;5.57;;
37973;SDS011;23796;51.458;7.000;2023-11-21T02:12:50;12.07;;;6.07;;
37973;SDS011;23796;51.458;7.000;2023-11-21T02:15:17;11.23;;;5.68;;
37973;SDS011;23796;51.458;7.000;2023-11-21T02:17:46;8.60;;;5.35;;
37973;SDS011;23796;51.458;7.000;2023-11-21T02:20:16;11.13;;;5.43;;
37973;SDS011;23796;51.458;7.000;2023-11-21T02:22:52;9.88;;;5.53;;
37973;SDS011;23796;51.458;7.000;2023-11-21T02:25:28;9.23;;;5.72;;
37973;SDS011;23796;51.458;7.000;2023-11-21T02:27:59;10.38;;;6.00;;
37973;SDS011;23796;51.458;7.000;2023-11-21T02:30:26;14.38;;;5.68;;
37973;SDS011;23796;51.458;7.000;2023-11-21T02:32:58;12.30;;;6.35;;
37973;SDS011;23796;51.458;7.000;2023-11-21T02:35:24;10.77;;;5.68;;
37973;SDS011;23796;51.458;7.000;2023-11-21T02:37:53;9.55;;;5.88;;
37973;SDS011;23796;51.458;7.000;2023-11-21T02:40:18;11.02;;;6.10;;
37973;SDS011;23796;51.458;7.000;2023-11-21T02:42:46;11.55;;;6.15;;
37973;SDS011;23796;51.458;7.000;2023-11-21T02:45:13;12.80;;;7.10;;
37973;SDS011;23796;51.458;7.000;2023-11-21T02:47:41;14.35;;;7.30;;
37973;SDS011;23796;51.458;7.000;2023-11-21T02:50:07;12.15;;;6.40;;
37973;SDS011;23796;51.458;7.000;2023-11-21T02:52:36;11.77;;;6.20;;
37973;SDS011;23796;51.458;7.000;2023-11-21T02:55:02;12.45;;;6.68;;
37973;SDS011;23796;51.458;7.000;2023-11-21T02:57:28;14.00;;;7.68;;
37973;SDS011;23796;51.458;7.000;2023-11-21T02:59:54;11.80;;;7.13;;
37973;SDS011;23796;51.458;7.000;2023-11-21T03:02:20;14.45;;;7.05;;
37973;SDS011;23796;51.458;7.000;2023-11-21T03:04:45;10.82;;;6.78;;
37973;SDS011;23796;51.458;7.000;2023-11-21T03:07:13;11.85;;;6.78;;
37973;SDS011;23796;51.458;7.000;2023-11-21T03:09:38;11.05;;;6.93;;
37973;SDS011;23796;51.458;7.000;2023-11-21T03:12:04;11.85;;;6.82;;
37973;SDS011;23796;51.458;7.000;2023-11-21T03:14:30;10.65;;;6.85;;
37973;SDS011;23796;51.458;7.000;2023-11-21T03:16:56;11.45;;;7.03;;
37973;SDS011;23796;51.458;7.000;2023-11-21T03:19:22;8.63;;;6.78;;
37973;SDS011;23796;51.458;7.000;2023-11-21T03:21:48;14.15;;;6.72;;
37973;SDS011;23796;51.458;7.000;2023-11-21T03:24:16;11.60;;;7.22;;
37973;SDS011;23796;51.458;7.000;2023-11-21T03:26:44;10.50;;;6.15;;
37973;SDS011;23796;51.458;7.000;2023-11-21T03:29:10;10.15;;;6.05;;
37973;SDS011;23796;51.458;7.000;2023-11-21T03:31:38;12.07;;;6.20;;
37973;SDS011;23796;51.458;7.000;2023-11-21T03:34:04;10.15;;;6.18;;
37973;SDS011;23796;51.458;7.000;2023-11-21T03:36:30;10.68;;;6.60;;
37973;SDS011;23796;51.458;7.000;2023-11-21T03:38:55;8.55;;;5.85;;
37973;SDS011;23796;51.458;7.000;2023-11-21T03:41:21;11.52;;;6.25;;
37973;SDS011;23796;51.458;7.000;2023-11-21T03:43:46;9.30;;;5.82;;
37973;SDS011;23796;51.458;7.000;2023-11-21T03:46:12;11.55;;;6.35;;
37973;SDS011;23796;51.458;7.000;2023-11-21T03:48:38;12.18;;;6.90;;
37973;SDS011;23796;51.458;7.000;2023-11-21T03:51:07;11.35;;;6.75;;
37973;SDS011;23796;51.458;7.000;2023-11-21T03:53:32;12.25;;;6.80;;
37973;SDS011;23796;51.458;7.000;2023-11-21T03:55:58;11.70;;;6.05;;
37973;SDS011;23796;51.458;7.000;2023-11-21T03:58:23;9.70;;;6.25;;
37973;SDS011;23796;51.458;7.000;2023-11-21T04:00:49;9.43;;;5.68;;
37973;SDS011;23796;51.458;7.000;2023-11-21T04:03:15;9.70;;;6.63;;
37973;SDS011;23796;51.458;7.000;2023-11-21T04:05:43;12.07;;;7.35;;
37973;SDS011;23796;51.458;7.000;2023-11-21T04:08:10;10.30;;;6.43;;
37973;SDS011;23796;51.458;7.000;2023-11-21T04:10:36;7.93;;;5.88;;
37973;SDS011;23796;51.458;7.000;2023-11-21T04:13:04;10.93;;;6.40;;
37973;SDS011;23796;51.458;7.000;2023-11-21T04:15:31;10.35;;;6.03;;
37973;SDS011;23796;51.458;7.000;2023-11-21T04:17:59;9.85;;;6.50;;
37973;SDS011;23796;51.458;7.000;2023-11-21T04:20:25;11.35;;;6.13;;
37973;SDS011;23796;51.458;7.000;2023-11-21T04:22:51;7.30;;;5.22;;
37973;SDS011;23796;51.458;7.000;2023-11-21T04:25:17;10.68;;;5.78;;
37973;SDS011;23796;51.458;7.000;2023-11-21T04:27:43;9.57;;;5.80;;
37973;SDS011;23796;51.458;7.000;2023-11-21T04:30:13;11.82;;;7.05;;
37973;SDS011;23796;51.458;7.000;2023-11-21T04:32:39;11.77;;;6.80;;
37973;SDS011;23796;51.458;7.000;2023-11-21T04:35:05;11.77;;;6.82;;
37973;SDS011;23796;51.458;7.000;2023-11-21T04:37:31;12.23;;;7.22;;
37973;SDS011;23796;51.458;7.000;2023-11-21T04:39:57;9.38;;;6.50;;
37973;SDS011;23796;51.458;7.000;2023-11-21T04:42:22;14.13;;;7.68;;
37973;SDS011;23796;51.458;7.000;2023-11-21T04:44:48;11.50;;;6.75;;
37973;SDS011;23796;51.458;7.000;2023-11-21T04:47:14;12.93;;;7.43;;
37973;SDS011;23796;51.458;7.000;2023-11-21T04:49:45;14.60;;;7.28;;
37973;SDS011;23796;51.458;7.000;2023-11-21T04:52:14;10.60;;;6.82;;
37973;SDS011;23796;51.458;7.000;2023-11-21T04:54:40;13.88;;;8.20;;
37973;SDS011;23796;51.458;7.000;2023-11-21T04:57:05;13.20;;;7.25;;
37973;SDS011;23796;51.458;7.000;2023-11-21T04:59:34;12.23;;;7.38;;
37973;SDS011;23796;51.458;7.000;2023-11-21T05:02:02;14.18;;;8.50;;
37973;SDS011;23796;51.458;7.000;2023-11-21T05:04:28;14.10;;;7.93;;
37973;SDS011;23796;51.458;7.000;2023-11-21T05:06:53;13.10;;;8.57;;
37973;SDS011;23796;51.458;7.000;2023-11-21T05:09:21;12.80;;;8.07;;
37973;SDS011;23796;51.458;7.000;2023-11-21T05:11:47;15.90;;;8.27;;
37973;SDS011;23796;51.458;7.000;2023-11-21T05:14:13;16.25;;;9.45;;
37973;SDS011;23796;51.458;7.000;2023-11-21T05:16:41;15.55;;;9.07;;
37973;SDS011;23796;51.458;7.000;2023-11-21T05:19:07;15.48;;;9.70;;
37973;SDS011;23796;51.458;7.000;2023-11-21T05:21:34;14.93;;;9.10;;
37973;SDS011;23796;51.458;7.000;2023-11-21T05:24:01;13.93;;;8.85;;
37973;SDS011;23796;51.458;7.000;2023-11-21T05:26:26;14.57;;;9.75;;
37973;SDS011;23796;51.458;7.000;2023-11-21T05:28:52;14.73;;;9.90;;
37973;SDS011;23796;51.458;7.000;2023-11-21T05:31:18;16.88;;;8.90;;
37973;SDS011;23796;51.458;7.000;2023-11-21T05:33:44;12.68;;;9.52;;
37973;SDS011;23796;51.458;7.000;2023-11-21T05:36:12;15.15;;;10.60;;
37973;SDS011;23796;51.458;7.000;2023-11-21T05:38:38;16.88;;;9.70;;
37973;SDS011;23796;51.458;7.000;2023-11-21T05:41:03;14.05;;;9.25;;
37973;SDS011;23796;51.458;7.000;2023-11-21T05:43:30;12.82;;;10.15;;
37973;SDS011;23796;51.458;7.000;2023-11-21T05:45:57;13.65;;;9.55;;
37973;SDS011;23796;51.458;7.000;2023-11-21T05:48:23;13.55;;;10.30;;
37973;SDS011;23796;51.458;7.000;2023-11-21T05:50:50;15.13;;;10.80;;
37973;SDS011;23796;51.458;7.000;2023-11-21T05:53:16;16.27;;;10.95;;
37973;SDS011;23796;51.458;7.000;2023-11-21T05:55:42;16.38;;;11.02;;
37973;SDS011;23796;51.458;7.000;2023-11-21T05:58:07;16.70;;;12.23;;
37973;SDS011;23796;51.458;7.000;2023-11-21T06:00:33;17.08;;;12.00;;
37973;SDS011;23796;51.458;7.000;2023-11-21T06:02:59;14.35;;;11.10;;
37973;SDS011;23796;51.458;7.000;2023-11-21T06:05:25;17.30;;;11.82;;
37973;SDS011;23796;51.458;7.000;2023-11-21T06:07:51;16.83;;;13.38;;
37973;SDS011;23796;51.458;7.000;2023-11-21T06:10:19;16.75;;;12.15;;
37973;SDS011;23796;51.458;7.000;2023-11-21T06:12:45;15.80;;;11.80;;
37973;SDS011;23796;51.458;7.000;2023-11-21T06:15:11;22.13;;;12.38;;
37973;SDS011;23796;51.458;7.000;2023-11-21T06:17:40;15.85;;;12.70;;
37973;SDS011;23796;51.458;7.000;2023-11-21T06:20:14;17.08;;;13.10;;
37973;SDS011;23796;51.458;7.000;2023-11-21T06:22:44;15.07;;;12.57;;
37973;SDS011;23796;51.458;7.000;2023-11-21T06:25:11;16.60;;;12.85;;
37973;SDS011;23796;51.458;7.000;2023-11-21T06:27:42;20.65;;;13.52;;
37973;SDS011;23796;51.458;7.000;2023-11-21T06:30:15;19.70;;;12.90;;
37973;SDS011;23796;51.458;7.000;2023-11-21T06:32:42;16.98;;;12.57;;
37973;SDS011;23796;51.458;7.000;2023-11-21T06:35:11;16.80;;;12.68;;
37973;SDS011;23796;51.458;7.000;2023-11-21T06:37:38;17.85;;;13.15;;
37973;SDS011;23796;51.458;7.000;2023-11-21T06:40:03;17.08;;;12.80;;
37973;SDS011;23796;51.458;7.000;2023-11-21T06:42:30;17.48;;;13.05;;
37973;SDS011;23796;51.458;7.000;2023-11-21T06:44:56;18.23;;;13.00;;
37973;SDS011;23796;51.458;7.000;2023-11-21T06:47:22;19.52;;;13.93;;
37973;SDS011;23796;51.458;7.000;2023-11-21T06:49:52;20.35;;;13.70;;
37973;SDS011;23796;51.458;7.000;2023-11-21T06:52:21;18.20;;;12.45;;
37973;SDS011;23796;51.458;7.000;2023-11-21T06:54:47;17.40;;;12.43;;
37973;SDS011;23796;51.458;7.000;2023-11-21T06:57:14;20.02;;;16.10;;
37973;SDS011;23796;51.458;7.000;2023-11-21T06:59:40;18.75;;;14.10;;
37973;SDS011;23796;51.458;7.000;2023-11-21T07:02:06;18.70;;;14.38;;
37973;SDS011;23796;51.458;7.000;2023-11-21T07:04:32;19.38;;;13.43;;
37973;SDS011;23796;51.458;7.000;2023-11-21T07:06:58;20.27;;;14.63;;
37973;SDS011;23796;51.458;7.000;2023-11-21T07:09:27;20.83;;;14.43;;
37973;SDS011;23796;51.458;7.000;2023-11-21T07:11:54;19.42;;;14.82;;
37973;SDS011;23796;51.458;7.000;2023-11-21T07:14:20;21.92;;;15.38;;
37973;SDS011;23796;51.458;7.000;2023-11-21T07:16:46;20.45;;;14.35;;
37973;SDS011;23796;51.458;7.000;2023-11-21T07:19:12;24.63;;;16.70;;
37973;SDS011;23796;51.458;7.000;2023-11-21T07:21:39;27.77;;;18.42;;
37973;SDS011;23796;51.458;7.000;2023-11-21T07:24:05;34.72;;;20.23;;
37973;SDS011;23796;51.458;7.000;2023-11-21T07:26:32;27.88;;;19.80;;
37973;SDS011;23796;51.458;7.000;2023-11-21T07:29:03;30.87;;;19.70;;
37973;SDS011;23796;51.458;7.000;2023-11-21T07:31:29;36.40;;;20.35;;
37973;SDS011;23796;51.458;7.000;2023-11-21T07:33:58;29.15;;;18.80;;
37973;SDS011;23796;51.458;7.000;2023-11-21T07:36:24;25.77;;;17.50;;
37973;SDS011;23796;51.458;7.000;2023-11-21T07:38:50;28.63;;;18.90;;
37973;SDS011;23796;51.458;7.000;2023-11-21T07:41:17;28.35;;;19.85;;
37973;SDS011;23796;51.458;7.000;2023-11-21T07:43:43;26.30;;;18.65;;
37973;SDS011;23796;51.458;7.000;2023-11-21T07:46:12;30.15;;;19.60;;
37973;SDS011;23796;51.458;7.000;2023-11-21T07:48:38;34.38;;;19.55;;
37973;SDS011;23796;51.458;7.000;2023-11-21T07:51:07;30.33;;;19.50;;
37973;SDS011;23796;51.458;7.000;2023-11-21T07:53:33;29.50;;;19.35;;
37973;SDS011;23796;51.458;7.000;2023-11-21T07:56:03;28.55;;;19.63;;
37973;SDS011;23796;51.458;7.000;2023-11-21T07:58:32;34.78;;;21.55;;
37973;SDS011;23796;51.458;7.000;2023-11-21T08:00:59;30.70;;;20.70;;
37973;SDS011;23796;51.458;7.000;2023-11-21T08:03:27;31.17;;;20.48;;
37973;SDS011;23796;51.458;7.000;2023-11-21T08:05:55;33.33;;;22.15;;
37973;SDS011;23796;51.458;7.000;2023-11-21T08:08:21;31.20;;;19.85;;
37973;SDS011;23796;51.458;7.000;2023-11-21T08:10:47;38.53;;;24.02;;
37973;SDS011;23796;51.458;7.000;2023-11-21T08:13:13;39.08;;;22.92;;
37973;SDS011;23796;51.458;7.000;2023-11-21T08:15:42;41.03;;;24.05;;
37973;SDS011;23796;51.458;7.000;2023-11-21T08:18:11;44.95;;;27.30;;
37973;SDS011;23796;51.458;7.000;2023-11-21T08:20:38;38.08;;;25.13;;
37973;SDS011;23796;51.458;7.000;2023-11-21T08:23:05;43.50;;;28.02;;
37973;SDS011;23796;51.458;7.000;2023-11-21T08:25:31;41.13;;;28.23;;
37973;SDS011;23796;51.458;7.000;2023-11-21T08:28:02;51.05;;;31.02;;
37973;SDS011;23796;51.458;7.000;2023-11-21T08:30:27;55.08;;;32.30;;
37973;SDS011;23796;51.458;7.000;2023-11-21T08:32:55;57.97;;;32.88;;
37973;SDS011;23796;51.458;7.000;2023-11-21T08:35:23;61.08;;;33.83;;
37973;SDS011;23796;51.458;7.000;2023-11-21T08:37:52;60.65;;;35.83;;
37973;SDS011;23796;51.458;7.000;2023-11-21T08:40:18;61.35;;;34.13;;
37973;SDS011;23796;51.458;7.000;2023-11-21T08:42:47;63.00;;;33.95;;
37973;SDS011;23796;51.458;7.000;2023-11-21T08:45:17;62.85;;;34.85;;
37973;SDS011;23796;51.458;7.000;2023-11-21T08:47:43;62.50;;;33.47;;
37973;SDS011;23796;51.458;7.000;2023-11-21T08:50:11;60.13;;;33.03;;
37973;SDS011;23796;51.458;7.000;2023-11-21T08:52:41;65.50;;;34.90;;
37973;SDS011;23796;51.458;7.000;2023-11-21T08:55:08;60.72;;;32.88;;
37973;SDS011;23796;51.458;7.000;2023-11-21T08:57:36;61.50;;;34.08;;
37973;SDS011;23796;51.458;7.000;2023-11-21T09:00:06;59.20;;;33.33;;
37973;SDS011;23796;51.458;7.000;2023-11-21T09:02:36;53.22;;;31.90;;
37973;SDS011;23796;51.458;7.000;2023-11-21T09:05:07;64.75;;;35.50;;
37973;SDS011;23796;51.458;7.000;2023-11-21T09:07:34;59.17;;;35.30;;
37973;SDS011;23796;51.458;7.000;2023-11-21T09:10:00;59.22;;;33.35;;
37973;SDS011;23796;51.458;7.000;2023-11-21T09:12:26;59.55;;;33.50;;
37973;SDS011;23796;51.458;7.000;2023-11-21T09:14:52;56.72;;;33.03;;
37973;SDS011;23796;51.458;7.000;2023-11-21T09:17:17;56.17;;;31.25;;
37973;SDS011;23796;51.458;7.000;2023-11-21T09:19:43;48.20;;;29.92;;
37973;SDS011;23796;51.458;7.000;2023-11-21T09:22:16;49.58;;;30.10;;
37973;SDS011;23796;51.458;7.000;2023-11-21T09:24:42;53.55;;;29.73;;
37973;SDS011;23796;51.458;7.000;2023-11-21T09:27:08;49.88;;;28.65;;
37973;SDS011;23796;51.458;7.000;2023-11-21T09:29:34;53.90;;;30.02;;
37973;SDS011;23796;51.458;7.000;2023-11-21T09:32:00;49.35;;;28.92;;
37973;SDS011;23796;51.458;7.000;2023-11-21T09:34:26;55.72;;;29.80;;
37973;SDS011;23796;51.458;7.000;2023-11-21T09:36:52;48.70;;;29.25;;
37973;SDS011;23796;51.458;7.000;2023-11-21T09:39:18;50.22;;;29.50;;
37973;SDS011;23796;51.458;7.000;2023-11-21T09:41:50;57.10;;;31.15;;
37973;SDS011;23796;51.458;7.000;2023-11-21T09:47:07;57.80;;;31.85;;
37973;SDS011;23796;51.458;7.000;2023-11-21T09:49:35;52.72;;;31.42;;
37973;SDS011;23796;51.458;7.000;2023-11-21T09:52:03;60.38;;;32.83;;
37973;SDS011;23796;51.458;7.000;2023-11-21T09:54:32;59.13;;;30.88;;
37973;SDS011;23796;51.458;7.000;2023-11-21T09:57:00;53.50;;;31.45;;
37973;SDS011;23796;51.458;7.000;2023-11-21T09:59:30;51.00;;;30.50;;
37973;SDS011;23796;51.458;7.000;2023-11-21T10:01:59;58.03;;;30.42;;
37973;SDS011;23796;51.458;7.000;2023-11-21T10:04:25;51.92;;;30.17;;
37973;SDS011;23796;51.458;7.000;2023-11-21T10:06:53;50.63;;;28.55;;
37973;SDS011;23796;51.458;7.000;2023-11-21T10:09:20;55.67;;;30.35;;
37973;SDS011;23796;51.458;7.000;2023-11-21T10:11:48;52.28;;;28.17;;
37973;SDS011;23796;51.458;7.000;2023-11-21T10:14:17;44.95;;;27.27;;
37973;SDS011;23796;51.458;7.000;2023-11-21T10:16:44;47.17;;;28.80;;
37973;SDS011;23796;51.458;7.000;2023-11-21T10:19:12;50.88;;;27.77;;
37973;SDS011;23796;51.458;7.000;2023-11-21T10:21:42;39.28;;;22.10;;
37973;SDS011;23796;51.458;7.000;2023-11-21T10:24:07;47.33;;;27.35;;
37973;SDS011;23796;51.458;7.000;2023-11-21T10:26:33;46.25;;;28.63;;
37973;SDS011;23796;51.458;7.000;2023-11-21T10:29:02;54.17;;;31.02;;
37973;SDS011;23796;51.458;7.000;2023-11-21T10:31:31;51.58;;;29.83;;
37973;SDS011;23796;51.458;7.000;2023-11-21T10:36:38;46.88;;;27.38;;
37973;SDS011;23796;51.458;7.000;2023-11-21T10:39:03;46.60;;;27.10;;
37973;SDS011;23796;51.458;7.000;2023-11-21T10:41:29;57.15;;;30.52;;
37973;SDS011;23796;51.458;7.000;2023-11-21T10:43:55;53.13;;;28.98;;
37973;SDS011;23796;51.458;7.000;2023-11-21T10:46:21;49.08;;;29.75;;
37973;SDS011;23796;51.458;7.000;2023-11-21T10:48:54;55.72;;;30.45;;
37973;SDS011;23796;51.458;7.000;2023-11-21T10:51:22;53.03;;;29.17;;
37973;SDS011;23796;51.458;7.000;2023-11-21T10:53:51;49.35;;;30.33;;
37973;SDS011;23796;51.458;7.000;2023-11-21T10:56:17;52.70;;;28.98;;
37973;SDS011;23796;51.458;7.000;2023-11-21T10:58:46;49.28;;;29.70;;
37973;SDS011;23796;51.458;7.000;2023-11-21T11:01:17;47.22;;;28.55;;
37973;SDS011;23796;51.458;7.000;2023-11-21T11:03:46;54.50;;;29.50;;
37973;SDS011;23796;51.458;7.000;2023-11-21T11:06:12;49.75;;;27.88;;
37973;SDS011;23796;51.458;7.000;2023-11-21T11:08:40;51.17;;;28.00;;
37973;SDS011;23796;51.458;7.000;2023-11-21T11:11:06;45.45;;;25.77;;
37973;SDS011;23796;51.458;7.000;2023-11-21T11:13:35;51.83;;;28.25;;
37973;SDS011;23796;51.458;7.000;2023-11-21T11:16:03;45.80;;;28.58;;
37973;SDS011;23796;51.458;7.000;2023-11-21T11:18:32;47.58;;;27.52;;
37973;SDS011;23796;51.458;7.000;2023-11-21T11:21:01;43.47;;;27.85;;
37973;SDS011;23796;51.458;7.000;2023-11-21T11:23:53;42.30;;;27.60;;
37973;SDS011;23796;51.458;7.000;2023-11-21T11:35:24;47.42;;;29.70;;
37973;SDS011;23796;51.458;7.000;2023-11-21T11:37:59;44.90;;;26.35;;
37973;SDS011;23796;51.458;7.000;2023-11-21T11:40:40;41.95;;;26.50;;
37973;SDS011;23796;51.458;7.000;2023-11-21T11:43:10;40.67;;;26.77;;
37973;SDS011;23796;51.458;7.000;2023-11-21T11:45:36;40.22;;;24.75;;
37973;SDS011;23796;51.458;7.000;2023-11-21T11:48:16;38.92;;;24.20;;
37973;SDS011;23796;51.458;7.000;2023-11-21T11:51:00;35.35;;;24.48;;
37973;SDS011;23796;51.458;7.000;2023-11-21T11:53:36;33.95;;;22.27;;
37973;SDS011;23796;51.458;7.000;2023-11-21T11:58:56;34.25;;;23.23;;
37973;SDS011;23796;51.458;7.000;2023-11-21T12:01:23;31.73;;;21.55;;
37973;SDS011;23796;51.458;7.000;2023-11-21T12:06:50;26.02;;;19.70;;
37973;SDS011;23796;51.458;7.000;2023-11-21T12:09:21;31.95;;;22.00;;
37973;SDS011;23796;51.458;7.000;2023-11-21T12:11:48;28.10;;;20.63;;
37973;SDS011;23796;51.458;7.000;2023-11-21T12:14:17;26.75;;;20.33;;
37973;SDS011;23796;51.458;7.000;2023-11-21T12:16:43;30.67;;;19.77;;
37973;SDS011;23796;51.458;7.000;2023-11-21T12:19:12;26.27;;;19.05;;
37973;SDS011;23796;51.458;7.000;2023-11-21T12:21:38;27.05;;;19.30;;
37973;SDS011;23796;51.458;7.000;2023-11-21T12:24:06;29.00;;;19.52;;
37973;SDS011;23796;51.458;7.000;2023-11-21T12:26:36;33.67;;;21.55;;
37973;SDS011;23796;51.458;7.000;2023-11-21T12:29:02;36.80;;;24.08;;
37973;SDS011;23796;51.458;7.000;2023-11-21T12:31:29;43.70;;;25.95;;
37973;SDS011;23796;51.458;7.000;2023-11-21T12:33:58;34.88;;;25.45;;
37973;SDS011;23796;51.458;7.000;2023-11-21T12:36:24;45.95;;;27.60;;
37973;SDS011;23796;51.458;7.000;2023-11-21T12:38:50;38.97;;;26.15;;
37973;SDS011;23796;51.458;7.000;2023-11-21T12:41:16;40.10;;;26.98;;
37973;SDS011;23796;51.458;7.000;2023-11-21T12:43:46;41.00;;;28.67;;
37973;SDS011;23796;51.458;7.000;2023-11-21T12:46:12;43.20;;;29.98;;
37973;SDS011;23796;51.458;7.000;2023-11-21T12:48:42;38.13;;;27.40;;
37973;SDS011;23796;51.458;7.000;2023-11-21T12:51:09;37.67;;;26.40;;
37973;SDS011;23796;51.458;7.000;2023-11-21T12:53:44;40.17;;;27.80;;
37973;SDS011;23796;51.458;7.000;2023-11-21T12:56:12;36.15;;;26.23;;
37973;SDS011;23796;51.458;7.000;2023-11-21T12:58:38;32.13;;;25.77;;
37973;SDS011;23796;51.458;7.000;2023-11-21T13:01:06;35.13;;;25.33;;
37973;SDS011;23796;51.458;7.000;2023-11-21T13:03:37;32.30;;;25.05;;
37973;SDS011;23796;51.458;7.000;2023-11-21T13:06:04;32.33;;;24.15;;
37973;SDS011;23796;51.458;7.000;2023-11-21T13:08:30;34.92;;;23.98;;
37973;SDS011;23796;51.458;7.000;2023-11-21T13:10:57;34.78;;;24.63;;
37973;SDS011;23796;51.458;7.000;2023-11-21T13:13:24;32.30;;;25.38;;
37973;SDS011;23796;51.458;7.000;2023-11-21T13:16:02;29.00;;;23.38;;
37973;SDS011;23796;51.458;7.000;2023-11-21T13:18:31;29.90;;;22.25;;
37973;SDS011;23796;51.458;7.000;2023-11-21T13:21:07;28.88;;;21.95;;
37973;SDS011;23796;51.458;7.000;2023-11-21T13:23:39;26.58;;;21.73;;
37973;SDS011;23796;51.458;7.000;2023-11-21T13:26:06;28.08;;;22.65;;
37973;SDS011;23796;51.458;7.000;2023-11-21T13:28:34;30.58;;;23.65;;
37973;SDS011;23796;51.458;7.000;2023-11-21T13:31:03;23.83;;;20.67;;
37973;SDS011;23796;51.458;7.000;2023-11-21T13:33:34;22.30;;;19.17;;
37973;SDS011;23796;51.458;7.000;2023-11-21T13:36:03;29.40;;;23.90;;
37973;SDS011;23796;51.458;7.000;2023-11-21T13:38:34;20.75;;;17.77;;
37973;SDS011;23796;51.458;7.000;2023-11-21T13:41:02;20.13;;;17.15;;
37973;SDS011;23796;51.458;7.000;2023-11-21T13:43:32;22.02;;;17.13;;
37973;SDS011;23796;51.458;7.000;2023-11-21T13:45:58;23.13;;;17.75;;
37973;SDS011;23796;51.458;7.000;2023-11-21T13:48:33;19.58;;;15.43;;
37973;SDS011;23796;51.458;7.000;2023-11-21T13:51:13;14.82;;;12.90;;
37973;SDS011;23796;51.458;7.000;2023-11-21T13:53:45;19.75;;;14.07;;
37973;SDS011;23796;51.458;7.000;2023-11-21T13:56:14;12.65;;;11.13;;
37973;SDS011;23796;51.458;7.000;2023-11-21T13:58:48;13.13;;;11.07;;
37973;SDS011;23796;51.458;7.000;2023-11-21T14:01:17;15.32;;;11.73;;
37973;SDS011;23796;51.458;7.000;2023-11-21T14:04:02;15.50;;;10.88;;
37973;SDS011;23796;51.458;7.000;2023-11-21T14:06:50;13.88;;;10.65;;
37973;SDS011;23796;51.458;7.000;2023-11-21T14:09:20;11.23;;;9.93;;
37973;SDS011;23796;51.458;7.000;2023-11-21T14:11:54;13.63;;;10.70;;
37973;SDS011;23796;51.458;7.000;2023-11-21T14:14:23;11.25;;;10.00;;
37973;SDS011;23796;51.458;7.000;2023-11-21T14:16:50;12.18;;;10.85;;
37973;SDS011;23796;51.458;7.000;2023-11-21T14:19:17;10.98;;;8.90;;
37973;SDS011;23796;51.458;7.000;2023-11-21T14:21:43;11.73;;;9.70;;
37973;SDS011;23796;51.458;7.000;2023-11-21T14:24:12;11.77;;;9.15;;
37973;SDS011;23796;51.458;7.000;2023-11-21T14:26:41;10.80;;;8.95;;
37973;SDS011;23796;51.458;7.000;2023-11-21T14:29:08;12.45;;;8.93;;
37973;SDS011;23796;51.458;7.000;2023-11-21T14:31:39;9.30;;;8.23;;
37973;SDS011;23796;51.458;7.000;2023-11-21T14:34:06;9.73;;;7.75;;
37973;SDS011;23796;51.458;7.000;2023-11-21T14:36:32;10.00;;;8.13;;
37973;SDS011;23796;51.458;7.000;2023-11-21T14:38:58;10.25;;;8.38;;
37973;SDS011;23796;51.458;7.000;2023-11-21T14:41:24;9.88;;;8.05;;
37973;SDS011;23796;51.458;7.000;2023-11-21T14:43:50;9.63;;;8.27;;
37973;SDS011;23796;51.458;7.000;2023-11-21T14:46:16;9.77;;;7.68;;
37973;SDS011;23796;51.458;7.000;2023-11-21T14:48:44;10.13;;;7.57;;
37973;SDS011;23796;51.458;7.000;2023-11-21T14:51:23;8.60;;;6.97;;